createdAt,value
2018-11-01T00:00:19.432Z,4.37
2018-11-01T00:02:52.990Z,7.28
2018-11-01T00:05:26.484Z,6.05
2018-11-01T00:08:00.129Z,4.40
2018-11-01T00:10:33.588Z,5.58
2018-11-01T00:13:07.087Z,4.97
2018-11-01T00:15:40.556Z,4.40
2018-11-01T00:18:14.134Z,4.75
2018-11-01T00:20:47.792Z,5.72
2018-11-01T00:23:21.789Z,8.98
2018-11-01T00:25:55.266Z,5.00
2018-11-01T00:28:28.873Z,5.95
2018-11-01T00:31:02.541Z,4.67
2018-11-01T00:33:36.004Z,5.20
2018-11-01T00:36:09.703Z,5.42
2018-11-01T00:38:43.191Z,3.80
2018-11-01T00:41:16.694Z,4.05
2018-11-01T00:43:50.364Z,4.05
2018-11-01T00:46:23.965Z,4.42
2018-11-01T00:48:57.497Z,6.28
2018-11-01T00:51:31.070Z,4.65
2018-11-01T00:54:04.742Z,5.95
2018-11-01T00:56:38.273Z,4.55
2018-11-01T00:59:11.955Z,6.62
2018-11-01T01:01:45.580Z,5.53
2018-11-01T01:04:19.161Z,5.00
2018-11-01T01:06:53.002Z,4.25
2018-11-01T01:09:26.744Z,4.65
2018-11-01T01:12:00.316Z,5.00
2018-11-01T01:14:33.917Z,5.55
2018-11-01T01:17:07.515Z,4.47
2018-11-01T01:19:41.147Z,5.05
2018-11-01T01:22:14.828Z,6.40
2018-11-01T01:24:48.338Z,5.20
2018-11-01T01:27:21.953Z,5.05
2018-11-01T01:29:55.615Z,4.55
2018-11-01T01:32:29.249Z,5.47
2018-11-01T01:35:03.048Z,4.25
2018-11-01T01:37:36.895Z,4.67
2018-11-01T01:40:11.039Z,3.70
2018-11-01T01:42:48.622Z,4.78
2018-11-01T01:45:23.036Z,3.30
2018-11-01T01:47:56.775Z,3.40
2018-11-01T01:50:30.221Z,4.28
2018-11-01T01:53:03.931Z,3.67
2018-11-01T01:55:37.271Z,3.87
2018-11-01T01:58:10.848Z,4.08
2018-11-01T02:00:44.368Z,4.00
2018-11-01T02:03:17.915Z,4.62
2018-11-01T02:05:51.471Z,3.80
2018-11-01T02:08:25.127Z,3.95
2018-11-01T02:10:58.558Z,7.05
2018-11-01T02:13:32.209Z,5.58
2018-11-01T02:16:05.865Z,4.35
2018-11-01T02:18:39.364Z,4.65
2018-11-01T02:21:12.927Z,4.97
2018-11-01T02:23:46.365Z,3.58
2018-11-01T02:26:20.075Z,4.30
2018-11-01T02:28:53.637Z,3.37
2018-11-01T02:31:27.226Z,4.30
2018-11-01T02:34:00.836Z,3.92
2018-11-01T02:36:34.257Z,4.55
2018-11-01T02:39:09.020Z,3.35
2018-11-01T02:41:42.483Z,4.05
2018-11-01T02:44:16.217Z,4.10
2018-11-01T02:46:49.640Z,3.17
2018-11-01T02:49:23.213Z,3.35
2018-11-01T02:51:56.675Z,4.05
2018-11-01T02:54:30.171Z,3.15
2018-11-01T02:57:03.609Z,2.98
2018-11-01T02:59:37.187Z,3.17
2018-11-01T03:02:10.635Z,4.40
2018-11-01T03:04:44.183Z,4.10
2018-11-01T03:07:17.764Z,6.80
2018-11-01T03:09:51.444Z,4.20
2018-11-01T03:12:24.967Z,4.22
2018-11-01T03:14:58.906Z,4.97
2018-11-01T03:17:32.647Z,3.12
2018-11-01T03:20:07.012Z,3.55
2018-11-01T03:22:40.696Z,6.28
2018-11-01T03:25:14.144Z,4.45
2018-11-01T03:27:47.760Z,3.58
2018-11-01T03:30:21.232Z,4.00
2018-11-01T03:32:54.895Z,3.65
2018-11-01T03:35:28.352Z,4.00
2018-11-01T03:38:02.075Z,3.75
2018-11-01T03:40:35.571Z,5.03
2018-11-01T03:43:09.035Z,4.78
2018-11-01T03:45:42.540Z,6.22
2018-11-01T03:48:16.096Z,5.37
2018-11-01T03:50:49.521Z,4.10
2018-11-01T03:53:23.115Z,4.17
2018-11-01T03:55:56.689Z,4.60
2018-11-01T03:58:30.339Z,5.30
2018-11-01T04:01:04.414Z,5.17
2018-11-01T04:03:37.916Z,6.47
2018-11-01T04:06:11.407Z,4.97
2018-11-01T04:08:44.894Z,6.10
2018-11-01T04:11:18.517Z,5.10
2018-11-01T04:13:52.128Z,7.12
2018-11-01T04:16:25.425Z,7.00
2018-11-01T04:18:58.976Z,4.17
2018-11-01T04:21:32.877Z,6.00
2018-11-01T04:24:06.517Z,4.87
2018-11-01T04:26:40.256Z,4.45
2018-11-01T04:29:13.750Z,10.18
2018-11-01T04:31:47.218Z,4.90
2018-11-01T04:34:20.784Z,4.70
2018-11-01T04:36:54.301Z,6.05
2018-11-01T04:39:27.983Z,5.62
2018-11-01T04:42:01.616Z,5.22
2018-11-01T04:44:35.154Z,4.20
2018-11-01T04:47:08.885Z,4.72
2018-11-01T04:49:42.256Z,6.10
2018-11-01T04:52:15.756Z,5.53
2018-11-01T04:54:49.386Z,5.60
2018-11-01T04:57:22.982Z,4.10
2018-11-01T04:59:56.604Z,6.70
2018-11-01T05:02:30.111Z,5.30
2018-11-01T05:05:03.680Z,4.92
2018-11-01T05:07:37.645Z,5.28
2018-11-01T05:10:12.141Z,5.47
2018-11-01T05:12:45.720Z,4.90
2018-11-01T05:15:19.168Z,6.65
2018-11-01T05:17:52.765Z,10.50
2018-11-01T05:20:26.186Z,5.58
2018-11-01T05:22:59.811Z,5.35
2018-11-01T05:25:33.284Z,5.62
2018-11-01T05:28:06.900Z,6.00
2018-11-01T05:30:40.463Z,4.92
2018-11-01T05:33:13.996Z,4.80
2018-11-01T05:35:48.175Z,6.65
2018-11-01T05:38:21.668Z,4.62
2018-11-01T05:40:55.276Z,4.92
2018-11-01T05:43:29.364Z,4.45
2018-11-01T05:46:02.816Z,7.22
2018-11-01T05:48:36.367Z,5.90
2018-11-01T05:51:09.896Z,5.05
2018-11-01T05:53:43.368Z,5.47
2018-11-01T05:56:16.968Z,6.83
2018-11-01T05:58:50.437Z,8.15
2018-11-01T06:01:29.804Z,5.78
2018-11-01T06:04:04.035Z,6.03
2018-11-01T06:06:37.693Z,8.08
2018-11-01T06:09:16.245Z,6.75
2018-11-01T06:11:49.846Z,6.50
2018-11-01T06:14:23.263Z,5.90
2018-11-01T06:16:57.193Z,6.83
2018-11-01T06:19:30.912Z,6.40
2018-11-01T06:22:04.452Z,6.28
2018-11-01T06:24:38.157Z,7.75
2018-11-01T06:27:11.767Z,5.75
2018-11-01T06:29:45.315Z,6.15
2018-11-01T06:32:19.029Z,5.75
2018-11-01T06:34:54.979Z,7.58
2018-11-01T06:37:28.522Z,6.20
2018-11-01T06:40:01.969Z,8.28
2018-11-01T06:42:35.680Z,9.58
2018-11-01T06:45:09.172Z,8.33
2018-11-01T06:47:42.845Z,6.30
2018-11-01T06:50:16.214Z,7.35
2018-11-01T06:52:49.884Z,8.90
2018-11-01T06:55:23.306Z,7.85
2018-11-01T06:57:56.756Z,9.65
2018-11-01T07:00:30.369Z,7.35
2018-11-01T07:03:03.811Z,5.95
2018-11-01T07:05:37.406Z,6.33
2018-11-01T07:08:11.301Z,9.80
2018-11-01T07:10:44.877Z,7.50
2018-11-01T07:13:18.373Z,8.43
2018-11-01T07:15:51.956Z,10.43
2018-11-01T07:18:25.420Z,8.48
2018-11-01T07:21:05.830Z,6.03
2018-11-01T07:23:39.410Z,5.50
2018-11-01T07:26:13.188Z,7.33
2018-11-01T07:28:46.510Z,7.72
2018-11-01T07:31:19.983Z,9.03
2018-11-01T07:33:53.608Z,7.28
2018-11-01T07:36:27.376Z,13.30
2018-11-01T07:39:01.013Z,6.55
2018-11-01T07:41:34.619Z,8.95
2018-11-01T07:44:08.114Z,6.87
2018-11-01T07:46:41.611Z,10.63
2018-11-01T07:49:15.311Z,10.35
2018-11-01T07:51:48.778Z,8.53
2018-11-01T07:54:22.410Z,7.37
2018-11-01T07:56:55.876Z,8.33
2018-11-01T07:59:29.443Z,7.42
2018-11-01T08:02:03.068Z,11.35
2018-11-01T08:04:36.475Z,7.47
2018-11-01T08:07:11.097Z,7.45
2018-11-01T08:09:44.789Z,7.60
2018-11-01T08:12:18.261Z,8.88
2018-11-01T08:14:51.900Z,7.50
2018-11-01T08:17:25.503Z,9.65
2018-11-01T08:19:59.231Z,8.50
2018-11-01T08:22:32.555Z,10.93
2018-11-01T08:25:06.202Z,9.90
2018-11-01T08:27:40.265Z,8.25
2018-11-01T08:30:15.964Z,9.78
2018-11-01T08:32:49.493Z,10.30
2018-11-01T08:35:23.092Z,11.40
2018-11-01T08:37:56.724Z,8.25
2018-11-01T08:40:30.303Z,9.50
2018-11-01T08:43:04.232Z,10.72
2018-11-01T08:45:37.703Z,7.87
2018-11-01T08:48:11.328Z,8.60
2018-11-01T08:50:44.735Z,10.30
2018-11-01T08:53:19.207Z,7.40
2018-11-01T08:55:52.648Z,12.18
2018-11-01T08:58:26.001Z,30.08
2018-11-01T09:00:59.536Z,12.50
2018-11-01T09:03:33.138Z,8.05
2018-11-01T09:06:06.593Z,10.30
2018-11-01T09:08:40.107Z,10.43
2018-11-01T09:11:13.490Z,13.30
2018-11-01T09:13:46.865Z,11.97
2018-11-01T09:16:20.432Z,13.28
2018-11-01T09:18:54.010Z,8.78
2018-11-01T09:21:27.672Z,10.50
2018-11-01T09:24:01.179Z,11.60
2018-11-01T09:26:34.804Z,11.33
2018-11-01T09:29:08.402Z,10.85
2018-11-01T09:31:42.003Z,10.60
2018-11-01T09:34:15.605Z,10.50
2018-11-01T09:36:48.917Z,17.37
2018-11-01T09:39:22.398Z,11.93
2018-11-01T09:41:57.443Z,12.28
2018-11-01T09:44:31.039Z,16.80
2018-11-01T09:47:05.317Z,13.53
2018-11-01T09:49:38.563Z,11.48
2018-11-01T09:52:12.172Z,9.85
2018-11-01T09:54:45.776Z,12.70
2018-11-01T09:57:19.237Z,10.18
2018-11-01T09:59:52.829Z,14.78
2018-11-01T10:02:26.288Z,11.48
2018-11-01T10:04:59.662Z,11.12
2018-11-01T10:07:37.126Z,13.68
2018-11-01T10:10:12.026Z,13.95
2018-11-01T10:12:45.520Z,13.08
2018-11-01T10:15:19.136Z,13.22
2018-11-01T10:17:53.172Z,10.18
2018-11-01T10:20:26.019Z,12.78
2018-11-01T10:22:59.785Z,13.08
2018-11-01T10:25:33.489Z,12.40
2018-11-01T10:28:06.927Z,13.38
2018-11-01T10:30:40.513Z,11.38
2018-11-01T10:33:14.191Z,13.20
2018-11-01T10:35:47.792Z,16.87
2018-11-01T10:38:21.603Z,15.45
2018-11-01T10:40:55.172Z,14.03
2018-11-01T10:43:28.624Z,12.75
2018-11-01T10:46:03.038Z,12.50
2018-11-01T10:48:36.554Z,14.43
2018-11-01T10:51:10.049Z,17.42
2018-11-01T10:53:43.704Z,12.25
2018-11-01T10:56:17.256Z,13.35
2018-11-01T10:58:50.771Z,10.03
2018-11-01T11:01:29.879Z,14.83
2018-11-01T11:04:03.598Z,11.10
2018-11-01T11:06:37.356Z,12.37
2018-11-01T11:09:10.863Z,13.98
2018-11-01T11:11:44.567Z,12.18
2018-11-01T11:14:18.374Z,12.13
2018-11-01T11:16:51.816Z,13.50
2018-11-01T11:19:25.272Z,15.48
2018-11-01T11:21:58.696Z,18.10
2018-11-01T11:24:32.217Z,14.58
2018-11-01T11:27:05.968Z,13.40
2018-11-01T11:29:39.934Z,12.25
2018-11-01T11:32:13.763Z,10.60
2018-11-01T11:34:47.478Z,13.65
2018-11-01T11:37:20.939Z,15.40
2018-11-01T11:39:54.616Z,13.58
2018-11-01T11:42:28.333Z,12.15
2018-11-01T11:45:02.005Z,11.88
2018-11-01T11:47:35.657Z,13.83
2018-11-01T11:50:10.176Z,13.05
2018-11-01T11:52:44.405Z,12.78
2018-11-01T11:55:18.099Z,15.50
2018-11-01T11:57:51.592Z,12.25
2018-11-01T12:00:25.230Z,11.60
2018-11-01T12:02:58.798Z,11.50
2018-11-01T12:05:32.439Z,14.20
2018-11-01T12:08:05.918Z,12.68
2018-11-01T12:10:39.394Z,13.50
2018-11-01T12:13:19.996Z,15.03
2018-11-01T12:15:53.479Z,14.60
2018-11-01T12:18:26.953Z,14.95
2018-11-01T12:21:00.372Z,17.23
2018-11-01T12:23:34.022Z,15.85
2018-11-01T12:26:07.599Z,15.68
2018-11-01T12:28:41.342Z,18.05
2018-11-01T12:31:14.756Z,24.27
2018-11-01T12:33:48.374Z,24.80
2018-11-01T12:36:21.772Z,17.80
2018-11-01T12:38:55.169Z,12.90
2018-11-01T12:41:28.721Z,13.45
2018-11-01T12:44:02.924Z,13.08
2018-11-01T12:46:36.628Z,15.95
2018-11-01T12:49:10.209Z,11.05
2018-11-01T12:51:44.043Z,18.45
2018-11-01T12:54:17.822Z,13.68
2018-11-01T12:56:51.399Z,14.90
2018-11-01T12:59:25.023Z,12.75
2018-11-01T13:01:58.727Z,11.50
2018-11-01T13:04:32.239Z,14.80
2018-11-01T13:07:06.093Z,12.53
2018-11-01T13:09:39.635Z,12.35
2018-11-01T13:12:12.983Z,17.20
2018-11-01T13:14:46.608Z,14.98
2018-11-01T13:17:20.947Z,14.78
2018-11-01T13:19:54.678Z,11.93
2018-11-01T13:22:28.438Z,13.53
2018-11-01T13:25:02.034Z,14.45
2018-11-01T13:27:35.601Z,11.28
2018-11-01T13:30:11.207Z,12.35
2018-11-01T13:32:47.483Z,15.95
2018-11-01T13:35:21.007Z,12.23
2018-11-01T13:37:54.434Z,11.85
2018-11-01T13:40:28.430Z,13.72
2018-11-01T13:43:01.822Z,14.00
2018-11-01T13:45:35.362Z,13.48
2018-11-01T13:48:10.344Z,13.25
2018-11-01T13:50:43.749Z,12.68
2018-11-01T13:53:17.208Z,13.22
2018-11-01T13:55:50.759Z,14.43
2018-11-01T13:58:24.206Z,13.88
2018-11-01T14:00:57.743Z,12.93
2018-11-01T14:03:31.259Z,17.15
2018-11-01T14:06:05.072Z,12.13
2018-11-01T14:08:38.565Z,11.08
2018-11-01T14:11:12.112Z,13.48
2018-11-01T14:13:45.777Z,12.40
2018-11-01T14:16:19.135Z,11.33
2018-11-01T14:18:52.550Z,15.90
2018-11-01T14:21:26.133Z,11.53
2018-11-01T14:23:59.703Z,12.30
2018-11-01T14:26:33.105Z,12.15
2018-11-01T14:29:06.740Z,13.62
2018-11-01T14:31:40.194Z,12.13
2018-11-01T14:34:13.736Z,11.85
2018-11-01T14:36:47.126Z,14.30
2018-11-01T14:39:20.645Z,12.47
2018-11-01T14:41:54.075Z,11.97
2018-11-01T14:44:27.504Z,12.58
2018-11-01T14:47:00.828Z,16.77
2018-11-01T14:49:34.249Z,19.30
2018-11-01T14:52:08.347Z,14.85
2018-11-01T14:54:42.380Z,13.45
2018-11-01T14:57:16.246Z,15.23
2018-11-01T14:59:49.979Z,14.93
2018-11-01T15:02:22.132Z,15.38
2018-11-01T15:04:55.742Z,13.60
2018-11-01T15:07:29.408Z,16.40
2018-11-01T15:10:02.931Z,15.43
2018-11-01T15:15:00.582Z,16.50
2018-11-01T15:17:34.214Z,16.67
2018-11-01T15:20:08.766Z,14.70
2018-11-01T15:22:42.501Z,15.78
2018-11-01T15:25:16.084Z,16.15
2018-11-01T15:27:49.732Z,14.87
2018-11-01T15:30:23.687Z,17.60
2018-11-01T15:32:57.251Z,14.43
2018-11-01T15:35:30.802Z,14.83
2018-11-01T15:38:04.397Z,15.63
2018-11-01T15:40:37.840Z,17.67
2018-11-01T15:43:11.294Z,11.93
2018-11-01T15:45:44.922Z,13.68
2018-11-01T15:48:18.501Z,12.65
2018-11-01T15:50:52.004Z,16.27
2018-11-01T15:53:25.641Z,15.55
2018-11-01T15:55:59.299Z,17.87
2018-11-01T15:58:32.731Z,14.23
2018-11-01T16:01:06.317Z,13.85
2018-11-01T16:03:39.974Z,13.25
2018-11-01T16:06:13.499Z,15.43
2018-11-01T16:08:46.993Z,16.48
2018-11-01T16:11:20.738Z,19.73
2018-11-01T16:13:54.349Z,13.65
2018-11-01T16:16:28.011Z,17.10
2018-11-01T16:19:01.673Z,13.85
2018-11-01T16:21:35.091Z,14.05
2018-11-01T16:24:08.620Z,19.15
2018-11-01T16:26:42.341Z,16.70
2018-11-01T16:29:15.812Z,16.07
2018-11-01T16:31:49.335Z,15.63
2018-11-01T16:34:22.985Z,15.63
2018-11-01T16:36:56.536Z,13.10
2018-11-01T16:39:30.129Z,14.63
2018-11-01T16:42:03.825Z,14.68
2018-11-01T16:44:37.390Z,13.45
2018-11-01T16:47:11.266Z,19.17
2018-11-01T16:49:44.865Z,14.90
2018-11-01T16:52:18.408Z,17.57
2018-11-01T16:54:51.965Z,17.85
2018-11-01T16:57:25.664Z,17.57
2018-11-01T16:59:59.368Z,15.98
2018-11-01T17:02:32.948Z,19.15
2018-11-01T17:05:07.194Z,15.93
2018-11-01T17:07:40.814Z,18.92
2018-11-01T17:10:14.619Z,15.78
2018-11-01T17:12:48.191Z,18.20
2018-11-01T17:15:21.776Z,16.85
2018-11-01T17:17:55.703Z,17.07
2018-11-01T17:20:29.225Z,16.62
2018-11-01T17:23:02.783Z,16.80
2018-11-01T17:25:36.324Z,19.92
2018-11-01T17:28:10.236Z,13.83
2018-11-01T17:30:43.961Z,18.00
2018-11-01T17:33:17.367Z,17.07
2018-11-01T17:35:50.987Z,17.87
2018-11-01T17:38:24.515Z,17.02
2018-11-01T17:40:58.109Z,17.23
2018-11-01T17:43:32.043Z,15.20
2018-11-01T17:46:05.772Z,18.52
2018-11-01T17:48:39.379Z,15.90
2018-11-01T17:51:13.826Z,15.80
2018-11-01T17:53:47.613Z,21.00
2018-11-01T17:56:21.237Z,15.97
2018-11-01T17:58:54.856Z,21.00
2018-11-01T18:01:28.660Z,19.27
2018-11-01T18:04:02.389Z,19.98
2018-11-01T18:06:36.485Z,23.27
2018-11-01T18:09:12.548Z,17.82
2018-11-01T18:11:46.247Z,18.62
2018-11-01T18:14:19.728Z,17.98
2018-11-01T18:16:53.343Z,18.60
2018-11-01T18:19:27.167Z,19.07
2018-11-01T18:22:00.683Z,18.35
2018-11-01T18:24:34.617Z,18.70
2018-11-01T18:27:08.270Z,20.08
2018-11-01T18:29:42.184Z,21.95
2018-11-01T18:32:16.024Z,21.93
2018-11-01T18:34:49.836Z,18.32
2018-11-01T18:37:23.579Z,20.32
2018-11-01T18:39:57.611Z,20.00
2018-11-01T18:42:31.627Z,23.52
2018-11-01T18:45:07.370Z,21.97
2018-11-01T18:47:41.419Z,19.52
2018-11-01T18:50:15.901Z,20.27
2018-11-01T18:52:49.566Z,20.77
2018-11-01T18:55:23.214Z,16.93
2018-11-01T18:57:56.712Z,20.45
2018-11-01T19:00:30.477Z,19.42
2018-11-01T19:03:04.183Z,19.95
2018-11-01T19:05:37.607Z,20.35
2018-11-01T19:08:11.250Z,22.50
2018-11-01T19:10:44.891Z,20.32
2018-11-01T19:13:18.585Z,21.70
2018-11-01T19:15:52.621Z,19.07
2018-11-01T19:18:26.019Z,20.25
2018-11-01T19:20:59.720Z,18.62
2018-11-01T19:26:12.391Z,21.70
2018-11-01T19:28:45.825Z,21.93
2018-11-01T19:31:19.441Z,17.40
2018-11-01T19:33:53.154Z,15.53
2018-11-01T19:36:26.744Z,20.20
2018-11-01T19:39:00.246Z,20.08
2018-11-01T19:41:33.847Z,20.30
2018-11-01T19:44:07.388Z,16.27
2018-11-01T19:46:41.029Z,17.25
2018-11-01T19:49:14.622Z,21.17
2018-11-01T19:51:48.231Z,19.90
2018-11-01T19:54:21.966Z,21.68
2018-11-01T19:56:55.588Z,17.87
2018-11-01T19:59:29.335Z,17.23
2018-11-01T20:02:04.117Z,15.83
2018-11-01T20:04:37.847Z,17.02
2018-11-01T20:07:11.601Z,17.62
2018-11-01T20:09:45.261Z,19.00
2018-11-01T20:12:18.736Z,17.32
2018-11-01T20:14:52.390Z,16.15
2018-11-01T20:17:26.026Z,16.75
2018-11-01T20:19:59.664Z,19.10
2018-11-01T20:22:33.296Z,18.50
2018-11-01T20:25:07.099Z,13.98
2018-11-01T20:27:40.719Z,15.83
2018-11-01T20:30:15.280Z,18.05
2018-11-01T20:32:48.814Z,16.75
2018-11-01T20:35:22.521Z,16.45
2018-11-01T20:37:56.175Z,14.70
2018-11-01T20:40:29.760Z,14.30
2018-11-01T20:43:03.574Z,18.30
2018-11-01T20:45:37.204Z,15.68
2018-11-01T20:48:11.122Z,16.93
2018-11-01T20:50:44.841Z,15.10
2018-11-01T20:53:18.444Z,22.52
2018-11-01T20:55:52.223Z,13.93
2018-11-01T20:58:25.805Z,16.23
2018-11-01T21:00:59.320Z,16.85
2018-11-01T21:03:32.918Z,17.07
2018-11-01T21:06:06.423Z,16.67
2018-11-01T21:08:40.028Z,16.95
2018-11-01T21:11:13.822Z,17.30
2018-11-01T21:13:47.184Z,11.78
2018-11-01T21:16:20.748Z,15.80
2018-11-01T21:18:54.280Z,14.20
2018-11-01T21:21:27.900Z,15.95
2018-11-01T21:24:01.422Z,16.30
2018-11-01T21:26:35.338Z,15.00
2018-11-01T21:29:09.135Z,16.67
2018-11-01T21:31:42.795Z,16.15
2018-11-01T21:34:16.222Z,19.48
2018-11-01T21:36:49.783Z,16.48
2018-11-01T21:39:24.160Z,16.62
2018-11-01T21:41:58.048Z,19.50
2018-11-01T21:44:31.735Z,19.75
2018-11-01T21:47:05.656Z,18.95
2018-11-01T21:49:40.495Z,17.60
2018-11-01T21:52:14.168Z,18.10
2018-11-01T21:54:47.677Z,22.67
2018-11-01T21:57:21.239Z,22.80
2018-11-01T21:59:54.780Z,24.95
2018-11-01T22:02:28.413Z,20.08
2018-11-01T22:05:01.928Z,19.80
2018-11-01T22:07:35.443Z,18.30
2018-11-01T22:10:09.745Z,19.57
2018-11-01T22:12:43.188Z,18.42
2018-11-01T22:15:17.016Z,21.37
2018-11-01T22:17:50.474Z,18.90
2018-11-01T22:20:24.877Z,22.85
2018-11-01T22:22:58.524Z,19.45
2018-11-01T22:25:32.292Z,18.60
2018-11-01T22:28:06.280Z,19.80
2018-11-01T22:30:39.860Z,22.42
2018-11-01T22:33:13.303Z,19.20
2018-11-01T22:35:46.898Z,20.95
2018-11-01T22:38:20.298Z,18.12
2018-11-01T22:40:53.920Z,18.85
2018-11-01T22:43:27.653Z,22.98
2018-11-01T22:46:01.190Z,25.00
2018-11-01T22:48:34.943Z,25.72
2018-11-01T22:51:08.730Z,23.15
2018-11-01T22:53:42.383Z,27.95
2018-11-01T22:56:15.832Z,25.25
2018-11-01T22:58:49.648Z,23.25
2018-11-01T23:01:23.053Z,26.10
2018-11-01T23:03:56.624Z,23.87
2018-11-01T23:06:30.098Z,28.77
2018-11-01T23:09:05.894Z,33.80
2018-11-01T23:11:39.866Z,28.52
2018-11-01T23:14:13.387Z,33.80
2018-11-01T23:16:47.027Z,26.80
2018-11-01T23:19:20.563Z,28.47
2018-11-01T23:21:55.242Z,28.95
2018-11-01T23:24:29.475Z,25.80
2018-11-01T23:27:03.004Z,28.40
2018-11-01T23:29:36.460Z,28.07
2018-11-01T23:32:09.862Z,30.75
2018-11-01T23:34:43.214Z,26.80
2018-11-01T23:37:22.684Z,30.32
2018-11-01T23:40:02.199Z,29.70
2018-11-01T23:42:41.535Z,29.18
2018-11-01T23:45:21.012Z,31.35
2018-11-01T23:47:59.223Z,28.92
2018-11-01T23:50:41.332Z,32.08
2018-11-01T23:53:31.300Z,29.07
2018-11-01T23:56:04.923Z,29.12
2018-11-01T23:58:38.354Z,31.50
